Time;durP1;ratioP1;P1;durP2;ratioP2;P2;SDS_P1;SDS_P2;PMS_P1;PMS_P2;Temp;Humidity;BMP_temperature;BMP_pressure;BME280_temperature;BME280_humidity;BME280_pressure;Samples;Min_cycle;Max_cycle;Signal;HPM_P1;HPM_P2
2023/01/06 00:01:24;;;;;;;2.65;1.20;;;7.20;96.50;;;;;;4970989;28;20399;-66
2023/01/06 00:03:52;;;;;;;1.63;1.33;;;7.20;96.40;;;;;;4971283;28;20030;-66
2023/01/06 00:06:21;;;;;;;3.40;1.60;;;7.20;96.50;;;;;;4967547;28;20031;-65
2023/01/06 00:08:47;;;;;;;2.42;1.15;;;7.20;96.60;;;;;;4972977;28;20038;-66
2023/01/06 00:11:14;;;;;;;4.38;1.40;;;7.20;96.70;;;;;;4960711;28;20041;-65
2023/01/06 00:13:40;;;;;;;6.00;1.50;;;7.20;96.80;;;;;;4974156;28;20585;-66
2023/01/06 00:16:11;;;;;;;4.05;1.23;;;7.20;96.80;;;;;;4974110;28;20066;-66
2023/01/06 00:18:38;;;;;;;4.68;1.60;;;7.30;96.90;;;;;;4969898;28;20121;-66
2023/01/06 00:21:05;;;;;;;4.78;1.77;;;7.30;96.60;;;;;;4973331;28;20023;-66
2023/01/06 00:23:32;;;;;;;6.13;1.83;;;7.30;96.40;;;;;;4969576;28;20034;-66
2023/01/06 00:25:58;;;;;;;3.50;1.40;;;7.40;96.40;;;;;;4972645;28;20034;-66
2023/01/06 00:28:23;;;;;;;4.13;1.48;;;7.40;96.50;;;;;;4969649;28;20681;-66
2023/01/06 00:30:51;;;;;;;9.27;1.42;;;7.40;96.20;;;;;;4954540;28;20026;-66
2023/01/06 00:33:17;;;;;;;2.38;1.08;;;7.50;96.10;;;;;;4959850;28;20410;-66
2023/01/06 00:35:43;;;;;;;2.03;1.00;;;7.50;96.20;;;;;;4976082;28;20143;-66
2023/01/06 00:38:09;;;;;;;7.60;1.25;;;7.40;96.30;;;;;;4955839;28;20044;-66
2023/01/06 00:40:36;;;;;;;3.50;1.40;;;7.50;96.30;;;;;;4979587;28;20027;-66
2023/01/06 00:43:02;;;;;;;3.42;1.02;;;7.50;96.10;;;;;;4953910;28;20046;-66
2023/01/06 00:45:28;;;;;;;2.72;1.00;;;7.50;96.20;;;;;;4959102;28;20030;-68
2023/01/06 00:47:54;;;;;;;3.50;1.48;;;7.60;96.10;;;;;;4966588;28;20300;-66
2023/01/06 00:50:20;;;;;;;6.25;1.27;;;7.60;96.00;;;;;;4958148;28;20027;-66
2023/01/06 00:52:47;;;;;;;3.33;1.10;;;7.60;95.90;;;;;;4953968;28;20693;-66
2023/01/06 00:55:14;;;;;;;3.42;1.05;;;7.50;96.00;;;;;;4976556;28;20022;-66
2023/01/06 00:57:41;;;;;;;5.72;1.35;;;7.60;96.00;;;;;;4959981;28;20040;-66
2023/01/06 01:00:10;;;;;;;4.90;1.05;;;7.60;96.10;;;;;;4954085;28;20051;-66
2023/01/06 01:02:36;;;;;;;4.10;1.27;;;7.60;96.10;;;;;;4972467;28;20035;-67
2023/01/06 01:05:02;;;;;;;2.13;1.02;;;7.70;96.10;;;;;;4969767;28;20031;-66
2023/01/06 01:07:28;;;;;;;5.00;1.30;;;7.60;96.20;;;;;;4952224;28;20053;-66
2023/01/06 01:09:53;;;;;;;4.50;1.27;;;7.60;96.20;;;;;;4953698;28;20287;-67
2023/01/06 01:12:19;;;;;;;5.13;1.33;;;7.70;96.20;;;;;;4951370;28;20038;-66
2023/01/06 01:14:48;;;;;;;2.97;1.05;;;7.70;96.30;;;;;;4976109;28;20602;-66
2023/01/06 01:17:22;;;;;;;2.25;0.90;;;7.70;96.20;;;;;;4961920;28;20148;-66
2023/01/06 01:19:49;;;;;;;3.38;1.33;;;7.70;96.30;;;;;;4970518;28;20045;-66
2023/01/06 01:22:16;;;;;;;7.20;1.58;;;7.70;96.20;;;;;;4973442;28;20121;-66
2023/01/06 01:24:42;;;;;;;6.55;1.27;;;7.80;96.00;;;;;;4950716;28;20050;-66
2023/01/06 01:27:10;;;;;;;9.75;1.17;;;7.80;95.90;;;;;;4973515;28;20891;-66
2023/01/06 01:29:35;;;;;;;5.00;1.13;;;7.80;96.00;;;;;;4961349;28;20479;-66
2023/01/06 01:32:02;;;;;;;3.28;0.93;;;7.80;95.90;;;;;;4952300;28;20042;-66
2023/01/06 01:34:28;;;;;;;4.75;1.63;;;7.70;95.80;;;;;;4952250;28;20084;-66
2023/01/06 01:36:54;;;;;;;4.78;1.30;;;7.70;96.00;;;;;;4956463;28;20101;-66
2023/01/06 01:39:22;;;;;;;5.53;1.13;;;7.60;96.00;;;;;;4959806;28;20030;-66
2023/01/06 01:41:49;;;;;;;6.90;1.35;;;7.50;96.10;;;;;;4972366;28;20027;-66
2023/01/06 01:44:55;;;;;;;4.60;1.27;;;7.50;96.00;;;;;;4953388;28;20039;-68
2023/01/06 01:47:59;;;;;;;5.40;1.20;;;7.40;96.10;;;;;;4971025;28;20041;-66
2023/01/06 01:50:38;;;;;;;4.63;1.45;;;7.40;96.30;;;;;;4969637;28;20057;-66
2023/01/06 01:53:09;;;;;;;7.80;1.00;;;7.40;96.30;;;;;;4969097;28;20031;-65
2023/01/06 01:55:36;;;;;;;2.15;0.82;;;7.40;96.10;;;;;;4967580;28;20458;-65
2023/01/06 01:58:15;;;;;;;3.28;1.38;;;7.40;96.30;;;;;;4976577;28;20387;-66
2023/01/06 02:00:42;;;;;;;3.70;1.20;;;7.30;96.20;;;;;;4973537;28;20073;-66
2023/01/06 02:03:09;;;;;;;2.47;1.15;;;7.40;96.10;;;;;;4973473;28;20023;-65
2023/01/06 02:05:43;;;;;;;3.80;1.40;;;7.30;96.20;;;;;;4974858;28;20611;-65
2023/01/06 02:08:20;;;;;;;4.55;1.13;;;7.30;96.30;;;;;;4950794;28;20091;-66
2023/01/06 02:10:45;;;;;;;3.88;1.73;;;7.30;96.50;;;;;;4954082;28;20031;-66
2023/01/06 02:13:11;;;;;;;3.42;1.20;;;7.30;96.50;;;;;;4948610;28;20081;-66
2023/01/06 02:15:37;;;;;;;3.35;1.02;;;7.30;96.60;;;;;;4958410;28;20041;-66
2023/01/06 02:18:32;;;;;;;5.03;1.10;;;7.30;96.60;;;;;;4967630;28;20050;-66
2023/01/06 02:21:10;;;;;;;6.88;1.00;;;7.30;96.70;;;;;;4974761;28;20920;-66
2023/01/06 02:23:51;;;;;;;4.85;1.20;;;7.30;96.70;;;;;;4976578;28;20029;-66
2023/01/06 02:26:50;;;;;;;8.50;1.63;;;7.30;96.80;;;;;;4971408;28;20061;-66
2023/01/06 02:29:54;;;;;;;4.85;1.30;;;7.30;96.90;;;;;;4956672;28;20061;-67
2023/01/06 02:32:29;;;;;;;6.82;1.20;;;7.30;97.00;;;;;;4959526;28;20104;-66
2023/01/06 02:34:55;;;;;;;4.82;1.05;;;7.30;97.30;;;;;;4956879;28;20499;-66
2023/01/06 02:37:35;;;;;;;4.93;1.25;;;7.30;97.50;;;;;;4969006;28;20039;-67
2023/01/06 02:40:37;;;;;;;9.00;1.50;;;7.40;97.80;;;;;;4961280;28;20031;-67
2023/01/06 02:43:08;;;;;;;7.78;1.40;;;7.30;97.60;;;;;;4962187;28;20099;-67
2023/01/06 02:45:56;;;;;;;4.00;1.42;;;7.40;97.70;;;;;;4975038;28;20023;-66
2023/01/06 02:48:31;;;;;;;9.98;1.73;;;7.40;97.80;;;;;;4977874;28;20625;-67
2023/01/06 02:51:10;;;;;;;3.38;1.70;;;7.50;97.80;;;;;;4972796;28;20080;-67
2023/01/06 02:53:55;;;;;;;2.28;1.13;;;7.60;97.70;;;;;;4958074;28;20144;-67
2023/01/06 02:56:30;;;;;;;6.38;1.75;;;7.60;97.70;;;;;;4954497;28;20034;-67
2023/01/06 02:59:06;;;;;;;;;;;7.60;97.80;;;;;;4959066;28;20073;-67
2023/01/06 03:01:40;;;;;;;6.53;2.05;;;7.50;97.90;;;;;;4953203;28;19964;-66
2023/01/06 03:04:11;;;;;;;3.13;1.30;;;7.60;98.00;;;;;;4977347;28;20034;-66
2023/01/06 03:06:43;;;;;;;2.05;1.30;;;7.60;98.00;;;;;;4966028;28;20398;-66
2023/01/06 03:09:15;;;;;;;8.00;1.85;;;7.60;97.80;;;;;;4956062;28;20474;-67
2023/01/06 03:11:44;;;;;;;5.72;1.40;;;7.70;98.00;;;;;;4958354;28;20573;-66
2023/01/06 03:14:34;;;;;;;8.98;1.80;;;7.70;98.00;;;;;;4970063;28;20033;-67
2023/01/06 03:17:00;;;;;;;5.05;1.58;;;7.70;97.80;;;;;;4959303;28;20077;-66
2023/01/06 03:19:30;;;;;;;6.88;1.55;;;7.70;98.00;;;;;;4968299;28;20491;-66
2023/01/06 03:21:58;;;;;;;5.60;1.10;;;7.70;97.90;;;;;;4957982;28;20085;-66
2023/01/06 03:24:24;;;;;;;3.22;1.35;;;7.70;98.00;;;;;;4980653;28;20081;-67
2023/01/06 03:26:52;;;;;;;5.65;1.60;;;7.70;98.00;;;;;;4958719;28;20068;-67
2023/01/06 03:29:20;;;;;;;9.93;1.60;;;7.70;97.90;;;;;;4961400;28;20068;-67
2023/01/06 03:32:13;;;;;;;5.63;1.30;;;7.80;98.00;;;;;;4971199;28;20030;-67
2023/01/06 03:34:57;;;;;;;3.63;1.10;;;7.80;97.90;;;;;;4974849;28;20033;-67
2023/01/06 03:37:54;;;;;;;5.30;1.52;;;7.80;98.00;;;;;;4952750;28;20035;-66
2023/01/06 03:40:42;;;;;;;2.60;1.42;;;7.80;98.00;;;;;;4955748;28;20384;-66
2023/01/06 03:43:38;;;;;;;7.75;1.45;;;7.90;98.00;;;;;;4951670;28;20039;-66
2023/01/06 03:46:14;;;;;;;4.72;1.70;;;7.80;97.90;;;;;;4960467;28;20031;-67
2023/01/06 03:48:50;;;;;;;8.77;2.20;;;7.80;98.20;;;;;;4955970;28;20100;-67
2023/01/06 03:51:43;;;;;;;5.80;2.17;;;7.80;98.10;;;;;;4971376;28;20041;-66
2023/01/06 03:54:34;;;;;;;2.40;1.60;;;7.90;98.30;;;;;;4974570;28;20503;-66
2023/01/06 03:57:22;;;;;;;5.28;2.05;;;7.90;98.30;;;;;;4953167;28;20037;-67
2023/01/06 04:00:20;;;;;;;8.00;1.80;;;7.80;98.10;;;;;;4972210;28;20045;-66
2023/01/06 04:02:54;;;;;;;8.70;1.88;;;7.80;98.30;;;;;;4952763;28;20058;-66
2023/01/06 04:05:24;;;;;;;5.63;2.10;;;7.70;98.50;;;;;;4956063;28;20034;-66
2023/01/06 04:07:52;;;;;;;4.57;1.80;;;7.70;98.70;;;;;;4962253;28;20475;-67
2023/01/06 04:10:21;;;;;;;6.45;1.90;;;7.70;98.80;;;;;;4961456;28;20065;-66
2023/01/06 04:12:49;;;;;;;7.43;1.90;;;7.70;99.00;;;;;;4959104;28;20030;-66
2023/01/06 04:15:22;;;;;;;8.10;2.30;;;7.70;98.80;;;;;;4957395;28;20033;-66
2023/01/06 04:17:50;;;;;;;11.00;2.33;;;7.70;98.80;;;;;;4957260;28;20034;-66
2023/01/06 04:20:28;;;;;;;9.57;2.63;;;7.70;98.80;;;;;;4969446;28;20050;-66
2023/01/06 04:23:04;;;;;;;7.07;2.45;;;7.70;98.90;;;;;;4976074;28;20022;-66
2023/01/06 04:25:34;;;;;;;5.50;2.03;;;7.70;98.80;;;;;;4967211;28;20026;-67
2023/01/06 04:28:08;;;;;;;9.07;3.10;;;7.70;98.90;;;;;;4974762;28;20019;-66
2023/01/06 04:30:34;;;;;;;10.00;2.33;;;7.80;98.90;;;;;;4960900;28;20049;-66
2023/01/06 04:32:59;;;;;;;9.07;2.40;;;7.80;98.90;;;;;;4974822;28;20459;-66
2023/01/06 04:35:25;;;;;;;5.78;2.38;;;7.80;98.90;;;;;;4974996;28;20034;-67
2023/01/06 04:37:51;;;;;;;7.25;2.55;;;7.70;99.10;;;;;;4958150;28;20023;-66
2023/01/06 04:40:17;;;;;;;5.75;2.33;;;7.70;99.20;;;;;;4969397;28;20041;-66
2023/01/06 04:45:27;;;;;;;13.63;2.35;;;7.70;99.60;;;;;;4951644;28;20030;-66
2023/01/06 04:47:52;;;;;;;6.38;2.45;;;7.70;99.60;;;;;;4974581;28;20502;-67
2023/01/06 04:50:18;;;;;;;8.40;2.58;;;7.70;99.70;;;;;;4975560;28;20036;-67
2023/01/06 04:52:44;;;;;;;8.98;2.50;;;7.70;99.90;;;;;;4976218;28;20034;-66
2023/01/06 04:55:10;;;;;;;8.60;2.75;;;7.70;99.70;;;;;;4973937;28;20114;-66
2023/01/06 04:57:36;;;;;;;6.18;3.08;;;7.80;99.70;;;;;;4971869;28;20038;-67
2023/01/06 05:00:03;;;;;;;8.45;2.70;;;7.80;99.80;;;;;;4974550;28;20394;-66
2023/01/06 05:02:28;;;;;;;7.78;2.53;;;7.70;99.60;;;;;;4969913;28;20126;-67
2023/01/06 05:04:54;;;;;;;7.93;2.53;;;7.70;99.80;;;;;;4972370;28;20131;-66
2023/01/06 05:07:20;;;;;;;10.48;2.75;;;7.70;99.90;;;;;;4969792;28;20023;-67
2023/01/06 05:09:46;;;;;;;4.78;2.58;;;7.70;99.90;;;;;;4971876;28;20065;-66
2023/01/06 05:12:11;;;;;;;8.48;2.75;;;7.70;99.90;;;;;;4978780;28;20033;-66
2023/01/06 05:14:37;;;;;;;5.90;2.55;;;7.70;99.90;;;;;;4978750;28;20883;-66
2023/01/06 05:17:03;;;;;;;8.23;2.92;;;7.70;99.90;;;;;;4972273;28;20518;-67
2023/01/06 05:19:29;;;;;;;5.93;2.50;;;7.80;99.90;;;;;;4973967;28;20030;-66
2023/01/06 05:21:54;;;;;;;5.95;2.70;;;7.70;99.90;;;;;;4970492;28;20514;-66
2023/01/06 05:24:20;;;;;;;4.82;2.58;;;7.70;99.90;;;;;;4974164;28;20542;-66
2023/01/06 05:26:46;;;;;;;8.82;2.90;;;7.70;99.90;;;;;;4966950;28;20122;-66
2023/01/06 05:29:16;;;;;;;6.30;2.90;;;7.60;99.90;;;;;;4974792;28;20839;-66
2023/01/06 05:31:42;;;;;;;10.10;3.38;;;7.60;99.90;;;;;;4970643;28;20085;-66
2023/01/06 05:34:10;;;;;;;6.35;2.60;;;7.70;99.90;;;;;;4977311;28;20399;-66
2023/01/06 05:36:35;;;;;;;5.55;2.25;;;7.70;99.90;;;;;;4975617;28;20839;-67
2023/01/06 05:39:01;;;;;;;7.90;3.20;;;7.70;99.90;;;;;;4968980;28;20037;-67
2023/01/06 05:41:27;;;;;;;7.43;2.50;;;7.70;99.90;;;;;;4972744;28;20084;-66
2023/01/06 05:43:53;;;;;;;9.88;3.03;;;7.70;99.90;;;;;;4971144;28;20026;-66
2023/01/06 05:46:19;;;;;;;12.98;3.28;;;7.70;99.90;;;;;;4968038;28;20035;-66
2023/01/06 05:48:44;;;;;;;7.63;2.80;;;7.80;99.90;;;;;;4974584;28;20045;-67
2023/01/06 05:51:12;;;;;;;4.07;2.42;;;7.80;99.90;;;;;;4964782;28;20034;-66
2023/01/06 05:53:40;;;;;;;4.90;2.97;;;7.80;99.90;;;;;;4975729;28;20072;-66
2023/01/06 05:56:08;;;;;;;9.00;2.90;;;7.70;99.90;;;;;;4975364;28;20035;-66
2023/01/06 05:58:35;;;;;;;6.95;3.13;;;7.70;99.90;;;;;;4969580;28;20037;-67
2023/01/06 06:01:03;;;;;;;7.78;2.75;;;7.70;99.90;;;;;;4972908;28;20026;-67
2023/01/06 06:03:30;;;;;;;8.73;3.53;;;7.60;99.90;;;;;;4971988;28;20545;-66
2023/01/06 06:06:05;;;;;;;6.82;2.55;;;7.50;99.90;;;;;;4970994;28;20065;-67
2023/01/06 06:08:31;;;;;;;7.07;3.22;;;7.50;99.90;;;;;;4968298;28;20501;-66
2023/01/06 06:11:05;;;;;;;9.15;3.00;;;7.50;99.90;;;;;;4969398;28;20066;-67
2023/01/06 06:13:31;;;;;;;7.20;3.13;;;7.60;99.90;;;;;;4971431;28;20034;-67
2023/01/06 06:16:09;;;;;;;4.70;2.90;;;7.60;99.90;;;;;;4977117;28;20069;-67
2023/01/06 06:18:41;;;;;;;5.40;2.83;;;7.70;99.90;;;;;;4970669;28;20042;-66
2023/01/06 06:21:08;;;;;;;5.43;2.80;;;7.70;99.90;;;;;;4974038;28;20084;-67
2023/01/06 06:23:34;;;;;;;6.07;2.70;;;7.80;99.90;;;;;;4972398;28;20711;-66
2023/01/06 06:26:00;;;;;;;6.30;3.00;;;7.80;99.90;;;;;;4979515;28;20033;-66
2023/01/06 06:28:29;;;;;;;7.38;2.95;;;7.80;99.90;;;;;;4973820;28;20558;-67
2023/01/06 06:31:01;;;;;;;8.10;3.03;;;7.80;99.90;;;;;;4956492;28;20443;-67
2023/01/06 06:33:27;;;;;;;4.90;2.83;;;7.80;99.90;;;;;;4972220;28;20078;-66
2023/01/06 06:36:00;;;;;;;5.53;2.55;;;7.80;99.90;;;;;;4973987;28;20678;-66
2023/01/06 06:38:26;;;;;;;9.70;2.88;;;7.80;99.90;;;;;;4972536;28;20045;-67
2023/01/06 06:40:52;;;;;;;8.85;3.00;;;7.80;99.90;;;;;;4972245;28;20457;-66
2023/01/06 06:43:19;;;;;;;5.13;2.53;;;7.80;99.90;;;;;;4974418;28;20116;-66
2023/01/06 06:45:45;;;;;;;10.85;3.78;;;7.80;99.90;;;;;;4972611;28;20095;-67
2023/01/06 06:48:11;;;;;;;5.95;2.75;;;7.80;99.90;;;;;;4977521;28;20065;-66
2023/01/06 06:50:37;;;;;;;6.93;3.08;;;7.90;99.90;;;;;;4959360;28;20660;-67
2023/01/06 06:53:02;;;;;;;5.68;2.75;;;7.90;99.90;;;;;;4972268;28;20031;-66
2023/01/06 06:55:28;;;;;;;7.85;3.03;;;8.00;99.90;;;;;;4967329;28;20042;-67
2023/01/06 06:57:54;;;;;;;6.38;2.70;;;7.90;99.90;;;;;;4972071;28;20035;-67
2023/01/06 07:00:21;;;;;;;5.82;3.35;;;7.90;99.90;;;;;;4976450;28;20069;-66
2023/01/06 07:02:48;;;;;;;6.22;4.20;;;8.00;99.90;;;;;;4976127;28;20035;-67
2023/01/06 07:05:14;;;;;;;5.95;3.30;;;8.00;99.90;;;;;;4979535;28;20022;-67
2023/01/06 07:07:40;;;;;;;5.53;3.17;;;8.10;99.90;;;;;;4974901;28;20093;-67
2023/01/06 07:10:07;;;;;;;6.50;3.15;;;8.10;99.90;;;;;;4971240;28;20030;-67
2023/01/06 07:12:32;;;;;;;7.50;3.53;;;8.00;99.90;;;;;;4977616;28;20072;-67
2023/01/06 07:14:58;;;;;;;9.82;4.22;;;8.00;99.90;;;;;;4971894;28;20070;-67
2023/01/06 07:17:27;;;;;;;5.18;3.22;;;7.90;99.90;;;;;;4971281;28;20050;-67
2023/01/06 07:19:53;;;;;;;8.82;4.00;;;7.90;99.90;;;;;;4970229;28;20049;-67
2023/01/06 07:22:19;;;;;;;8.20;3.85;;;7.90;99.90;;;;;;4971853;28;20112;-66
2023/01/06 07:24:45;;;;;;;7.32;3.72;;;8.00;99.90;;;;;;4973055;28;20467;-66
2023/01/06 07:27:11;;;;;;;9.85;4.68;;;8.00;99.90;;;;;;4972884;28;20031;-66
2023/01/06 07:29:37;;;;;;;11.07;4.40;;;8.10;99.90;;;;;;4969059;28;20031;-66
2023/01/06 07:32:04;;;;;;;12.23;5.10;;;8.10;99.90;;;;;;4977908;28;20038;-67
2023/01/06 07:34:30;;;;;;;8.55;4.65;;;8.10;99.90;;;;;;4970694;28;20035;-67
2023/01/06 07:36:56;;;;;;;12.77;4.68;;;8.10;99.90;;;;;;4970285;28;20109;-66
2023/01/06 07:39:22;;;;;;;13.10;5.20;;;8.20;99.90;;;;;;4971564;28;20031;-67
2023/01/06 07:41:48;;;;;;;12.00;4.72;;;8.20;99.90;;;;;;4977459;28;20031;-66
2023/01/06 07:44:14;;;;;;;10.45;5.10;;;8.30;99.90;;;;;;4969149;28;20027;-66
2023/01/06 07:46:40;;;;;;;11.18;5.03;;;8.40;99.90;;;;;;4975225;28;20027;-67
2023/01/06 07:49:06;;;;;;;11.80;4.70;;;8.50;99.90;;;;;;4975399;28;20699;-67
2023/01/06 07:51:32;;;;;;;9.90;4.93;;;8.50;99.90;;;;;;4968908;28;20035;-66
2023/01/06 07:53:57;;;;;;;8.10;5.57;;;8.60;99.90;;;;;;4970535;28;20082;-66
2023/01/06 07:56:23;;;;;;;10.38;5.70;;;8.70;99.90;;;;;;4974455;28;20070;-66
2023/01/06 07:58:49;;;;;;;11.38;5.93;;;8.70;99.90;;;;;;4976495;28;20523;-66
2023/01/06 08:01:15;;;;;;;14.23;6.22;;;8.70;99.90;;;;;;4971696;28;20109;-67
2023/01/06 08:03:41;;;;;;;11.15;5.63;;;8.80;99.90;;;;;;4977367;28;20065;-67
2023/01/06 08:06:09;;;;;;;10.52;5.78;;;8.80;99.90;;;;;;4969426;28;20058;-67
2023/01/06 08:08:36;;;;;;;15.25;6.60;;;8.80;99.90;;;;;;4974090;28;20042;-66
2023/01/06 08:11:03;;;;;;;11.70;6.50;;;8.80;99.90;;;;;;4973636;28;20035;-66
2023/01/06 08:13:28;;;;;;;12.20;6.00;;;8.70;99.90;;;;;;4972745;28;20034;-66
2023/01/06 08:15:54;;;;;;;15.10;6.68;;;8.80;99.90;;;;;;4978850;28;20049;-67
2023/01/06 08:18:20;;;;;;;10.75;6.97;;;8.80;99.90;;;;;;4961308;28;20037;-66
2023/01/06 08:20:46;;;;;;;9.07;5.90;;;8.80;99.90;;;;;;4969376;28;20111;-67
2023/01/06 08:23:11;;;;;;;14.07;6.85;;;8.90;99.90;;;;;;4970475;28;20034;-67
2023/01/06 08:25:37;;;;;;;10.02;5.95;;;8.90;99.90;;;;;;4976668;28;20038;-66
2023/01/06 08:28:03;;;;;;;15.20;6.15;;;9.00;99.90;;;;;;4978416;28;20030;-68
2023/01/06 08:30:29;;;;;;;13.20;5.90;;;9.00;99.90;;;;;;4970829;28;20038;-66
2023/01/06 08:32:57;;;;;;;12.73;6.18;;;9.00;99.90;;;;;;4970959;28;20034;-67
2023/01/06 08:35:22;;;;;;;11.82;6.07;;;9.10;99.90;;;;;;4968037;28;20820;-67
2023/01/06 08:37:48;;;;;;;12.85;6.00;;;9.20;99.90;;;;;;4970244;28;20023;-67
2023/01/06 08:40:14;;;;;;;13.13;6.85;;;9.30;99.90;;;;;;4978714;28;20058;-67
2023/01/06 08:42:40;;;;;;;14.05;7.15;;;9.30;99.90;;;;;;4964198;28;20077;-66
2023/01/06 08:45:06;;;;;;;15.32;7.03;;;9.30;99.90;;;;;;4967207;28;20089;-66
2023/01/06 08:47:33;;;;;;;13.80;6.65;;;9.30;99.90;;;;;;4967295;28;20757;-66
2023/01/06 08:49:59;;;;;;;15.25;6.50;;;9.30;99.90;;;;;;4970491;28;20022;-66
2023/01/06 08:52:25;;;;;;;9.60;6.22;;;9.30;99.90;;;;;;4971512;28;20041;-68
2023/01/06 08:54:50;;;;;;;15.35;6.32;;;9.30;99.90;;;;;;4955063;28;20030;-67
2023/01/06 08:57:16;;;;;;;12.70;6.50;;;9.40;99.90;;;;;;4972682;28;20069;-70
2023/01/06 08:59:42;;;;;;;13.55;5.93;;;9.50;99.90;;;;;;4965862;28;20030;-66
2023/01/06 09:02:12;;;;;;;12.13;6.07;;;9.50;99.90;;;;;;4970178;28;20051;-66
2023/01/06 09:04:38;;;;;;;13.45;5.82;;;9.50;99.90;;;;;;4969842;28;20132;-67
2023/01/06 09:07:04;;;;;;;12.05;6.18;;;9.50;99.90;;;;;;4975683;28;20054;-67
2023/01/06 09:09:30;;;;;;;13.93;7.60;;;9.60;99.90;;;;;;4971162;28;20719;-67
2023/01/06 09:11:56;;;;;;;12.25;6.85;;;9.50;99.90;;;;;;4966667;28;20023;-66
2023/01/06 09:14:22;;;;;;;10.18;6.18;;;9.60;99.90;;;;;;4976718;28;20038;-67
2023/01/06 09:16:48;;;;;;;15.73;7.10;;;9.60;99.90;;;;;;4978380;28;20777;-67
2023/01/06 09:19:15;;;;;;;18.02;7.55;;;9.60;99.90;;;;;;4971876;28;20030;-66
2023/01/06 09:21:41;;;;;;;12.25;6.32;;;9.70;99.90;;;;;;4972619;28;20396;-67
2023/01/06 09:24:12;;;;;;;9.93;5.60;;;9.70;99.90;;;;;;4967728;28;20252;-67
2023/01/06 09:26:38;;;;;;;10.15;6.10;;;9.70;99.90;;;;;;4968873;28;20125;-67
2023/01/06 09:29:04;;;;;;;13.65;7.25;;;9.70;99.90;;;;;;4969035;28;20141;-67
2023/01/06 09:31:30;;;;;;;9.95;7.07;;;9.70;99.90;;;;;;4967612;28;20388;-67
2023/01/06 09:33:56;;;;;;;14.05;6.40;;;9.70;99.90;;;;;;4969851;28;20501;-67
2023/01/06 09:36:22;;;;;;;13.40;6.13;;;9.70;99.90;;;;;;4968684;28;20089;-68
2023/01/06 09:38:47;;;;;;;11.40;5.88;;;9.70;99.90;;;;;;4971378;28;20080;-66
2023/01/06 09:41:42;;;;;;;10.70;6.15;;;9.60;99.90;;;;;;4972146;28;20034;-66
2023/01/06 09:44:27;;;;;;;16.27;6.35;;;9.60;99.90;;;;;;4967877;28;20162;-66
2023/01/06 09:46:53;;;;;;;14.27;6.68;;;9.50;99.90;;;;;;4967631;28;20039;-66
2023/01/06 09:49:41;;;;;;;11.98;5.88;;;9.50;99.90;;;;;;4971110;28;20070;-66
2023/01/06 09:52:19;;;;;;;14.35;6.28;;;9.60;99.90;;;;;;4975569;28;20439;-66
2023/01/06 09:55:11;;;;;;;14.13;6.47;;;9.70;99.90;;;;;;4969901;28;20958;-66
2023/01/06 09:57:49;;;;;;;11.93;6.30;;;9.70;99.90;;;;;;4973903;28;20050;-66
2023/01/06 10:00:36;;;;;;;13.15;6.55;;;9.70;99.90;;;;;;4982964;28;20492;-66
2023/01/06 10:03:03;;;;;;;11.25;6.10;;;9.70;99.90;;;;;;4972089;28;20055;-67
2023/01/06 10:05:29;;;;;;;15.40;6.45;;;9.70;99.90;;;;;;4970469;28;20085;-65
2023/01/06 10:08:00;;;;;;;12.10;6.32;;;9.70;99.90;;;;;;4972708;28;20034;-67
2023/01/06 10:10:47;;;;;;;14.60;7.07;;;9.50;99.90;;;;;;4971213;28;20030;-67
2023/01/06 10:13:25;;;;;;;14.82;6.97;;;9.60;99.90;;;;;;4971019;28;20113;-66
2023/01/06 10:16:23;;;;;;;14.63;6.53;;;9.70;99.90;;;;;;4978121;28;20167;-67
2023/01/06 10:18:58;;;;;;;12.18;6.70;;;9.70;99.90;;;;;;4975194;28;20061;-66
2023/01/06 10:21:44;;;;;;;10.88;6.13;;;9.70;99.90;;;;;;4980780;28;20030;-66
2023/01/06 10:24:36;;;;;;;14.07;6.33;;;9.80;99.90;;;;;;4969101;28;20113;-66
2023/01/06 10:27:35;;;;;;;13.38;6.60;;;9.80;99.90;;;;;;4975347;28;20778;-66
2023/01/06 10:30:04;;;;;;;11.25;6.18;;;9.80;99.90;;;;;;4977086;28;20125;-67
2023/01/06 10:32:33;;;;;;;12.25;6.32;;;9.80;99.90;;;;;;4970288;28;20070;-66
2023/01/06 10:35:00;;;;;;;12.23;6.05;;;9.90;99.90;;;;;;4975356;28;20032;-68
2023/01/06 10:37:47;;;;;;;9.30;5.60;;;10.00;99.90;;;;;;4975199;28;20084;-67
2023/01/06 10:40:28;;;;;;;11.20;5.93;;;10.10;99.90;;;;;;4971330;28;20046;-67
2023/01/06 10:43:02;;;;;;;11.13;6.10;;;10.20;99.90;;;;;;4970377;28;20777;-66
2023/01/06 10:45:32;;;;;;;9.98;5.40;;;10.20;99.90;;;;;;4973469;28;20038;-67
2023/01/06 10:48:01;;;;;;;10.43;5.50;;;10.20;99.90;;;;;;4971203;28;20030;-66
2023/01/06 10:50:27;;;;;;;11.15;5.28;;;10.20;99.90;;;;;;4969308;28;20137;-66
2023/01/06 10:52:53;;;;;;;8.75;5.15;;;10.10;99.90;;;;;;4973669;28;20121;-66
2023/01/06 10:55:46;;;;;;;7.80;5.00;;;10.10;99.90;;;;;;4967683;28;20058;-66
2023/01/06 10:58:24;;;;;;;7.55;4.40;;;10.20;99.90;;;;;;4969617;28;20117;-67
2023/01/06 11:00:56;;;;;;;13.40;4.55;;;10.20;99.90;;;;;;4959766;28;20030;-67
2023/01/06 11:03:21;;;;;;;11.23;4.88;;;10.20;99.90;;;;;;4976114;28;20486;-66
2023/01/06 11:05:59;;;;;;;7.85;4.85;;;10.20;99.90;;;;;;4969533;28;20038;-66
2023/01/06 11:08:25;;;;;;;10.60;4.95;;;10.30;99.90;;;;;;4972536;28;20126;-66
2023/01/06 11:10:56;;;;;;;6.93;4.57;;;10.30;99.90;;;;;;4969566;28;20062;-68
2023/01/06 11:13:38;;;;;;;8.05;4.15;;;10.30;99.90;;;;;;4975069;28;20029;-67
2023/01/06 11:16:17;;;;;;;8.15;3.90;;;10.40;99.90;;;;;;4969865;28;20026;-66
2023/01/06 11:18:49;;;;;;;5.68;3.60;;;10.50;99.90;;;;;;4975489;28;20042;-68
2023/01/06 11:21:15;;;;;;;6.82;3.38;;;10.60;99.90;;;;;;4972709;28;20104;-66
2023/01/06 11:23:43;;;;;;;8.35;3.85;;;10.50;99.90;;;;;;4977648;28;20557;-66
2023/01/06 11:26:20;;;;;;;10.15;3.67;;;10.40;99.90;;;;;;4969082;28;20398;-66
2023/01/06 11:28:47;;;;;;;5.22;3.60;;;10.50;99.90;;;;;;4974040;28;20081;-66
2023/01/06 11:31:13;;;;;;;6.25;3.60;;;10.40;99.90;;;;;;4973377;28;20045;-66
2023/01/06 11:33:58;;;;;;;5.68;3.38;;;10.40;99.90;;;;;;4975158;28;20030;-66
2023/01/06 11:36:27;;;;;;;7.07;3.88;;;10.40;99.90;;;;;;4967727;28;20050;-65
2023/01/06 11:39:14;;;;;;;6.55;3.13;;;10.30;99.90;;;;;;4973982;28;20143;-65
2023/01/06 11:41:45;;;;;;;5.63;3.17;;;10.40;99.90;;;;;;4972116;28;20030;-66
2023/01/06 11:44:16;;;;;;;7.63;3.47;;;10.50;99.90;;;;;;4977435;28;20134;-65
2023/01/06 11:46:50;;;;;;;6.85;3.35;;;10.50;99.90;;;;;;4957917;28;20037;-65
2023/01/06 11:49:26;;;;;;;4.75;2.80;;;10.50;99.90;;;;;;4974424;28;20034;-64
2023/01/06 11:51:58;;;;;;;;;;;10.50;99.90;;;;;;4967630;28;20053;-67
2023/01/06 11:54:30;;;;;;;6.55;3.28;;;10.50;99.90;;;;;;4964883;28;19914;-67
2023/01/06 11:57:14;;;;;;;5.53;2.75;;;10.60;99.90;;;;;;4967755;28;20034;-67
2023/01/06 12:00:18;;;;;;;4.45;3.00;;;10.60;99.90;;;;;;4970273;28;20446;-66
2023/01/06 12:03:06;;;;;;;3.65;2.38;;;10.60;99.90;;;;;;4970545;28;20037;-67
2023/01/06 12:05:38;;;;;;;4.00;2.72;;;10.70;99.90;;;;;;4962060;28;20035;-67
2023/01/06 12:08:23;;;;;;;5.43;2.25;;;10.70;99.90;;;;;;4949568;28;20053;-67
2023/01/06 12:11:14;;;;;;;4.07;2.10;;;10.90;99.90;;;;;;4971139;28;20118;-69
2023/01/06 12:13:40;;;;;;;7.72;2.75;;;10.80;99.90;;;;;;4978862;28;20402;-68
2023/01/06 12:16:38;;;;;;;4.10;2.47;;;10.80;99.90;;;;;;4971892;28;20030;-67
2023/01/06 12:19:13;;;;;;;3.58;2.25;;;10.70;99.90;;;;;;4959673;28;20138;-67
2023/01/06 12:21:41;;;;;;;4.72;2.40;;;10.70;99.90;;;;;;4970219;28;20046;-70
2023/01/06 12:24:13;;;;;;;4.50;1.95;;;10.70;99.90;;;;;;4969377;28;20074;-68
2023/01/06 12:26:40;;;;;;;3.00;2.15;;;10.70;99.90;;;;;;4973318;28;20660;-67
2023/01/06 12:29:07;;;;;;;3.20;2.28;;;10.70;99.90;;;;;;4969927;28;20046;-67
2023/01/06 12:31:36;;;;;;;3.67;2.50;;;10.80;99.90;;;;;;4974691;28;20034;-67
2023/01/06 12:34:23;;;;;;;5.30;2.90;;;10.80;99.90;;;;;;5032673;28;20475;-68
2023/01/06 12:37:18;;;;;;;3.53;2.17;;;10.90;99.90;;;;;;5034586;28;20021;-67
2023/01/06 12:39:56;;;;;;;4.13;1.33;;;11.00;99.90;;;;;;5037631;28;20041;-67
2023/01/06 12:42:36;;;;;;;4.57;1.83;;;10.90;99.90;;;;;;5032852;28;20033;-67
2023/01/06 12:45:13;;;;;;;4.00;2.20;;;10.90;99.90;;;;;;5027219;28;20037;-68
2023/01/06 12:47:48;;;;;;;2.22;1.30;;;11.00;99.90;;;;;;5035958;28;20033;-66
2023/01/06 12:50:38;;;;;;;2.10;1.30;;;11.10;99.90;;;;;;5031333;28;20048;-68
2023/01/06 12:53:11;;;;;;;6.75;3.97;;;11.10;99.90;;;;;;5029518;28;20124;-67
2023/01/06 12:55:40;;;;;;;7.80;4.25;;;11.10;99.90;;;;;;5030349;28;20025;-67
2023/01/06 12:58:27;;;;;;;21.52;6.22;;;11.30;99.90;;;;;;5037291;28;20087;-67
2023/01/06 13:01:03;;;;;;;3.08;2.47;;;11.50;99.90;;;;;;5020673;28;20026;-67
2023/01/06 13:03:28;;;;;;;;;;;11.50;99.90;;;;;;5032740;28;20051;-67
2023/01/06 13:06:04;;;;;;;2.67;1.63;;;11.40;99.90;;;;;;5031371;28;19913;-67
2023/01/06 13:08:48;;;;;;;3.78;1.95;;;11.30;99.90;;;;;;5029306;28;20801;-67
2023/01/06 13:11:33;;;;;;;6.30;3.88;;;11.30;99.90;;;;;;5032002;28;20083;-67
2023/01/06 13:14:05;;;;;;;3.35;1.50;;;11.40;99.90;;;;;;5041296;28;20095;-68
2023/01/06 13:16:36;;;;;;;7.57;4.13;;;11.40;99.90;;;;;;5035612;28;20039;-67
2023/01/06 13:19:25;;;;;;;7.25;4.70;;;11.40;99.90;;;;;;5024130;28;20039;-66